Time;durP1;ratioP1;P1;durP2;ratioP2;P2;SDS_P1;SDS_P2;PMS_P1;PMS_P2;Temp;Humidity;BMP_temperature;BMP_pressure;BME280_temperature;BME280_humidity;BME280_pressure;Samples;Min_cycle;Max_cycle;Signal;HPM_P1;HPM_P2
2022/04/30 00:00:35;;;;;;;2.87;1.83;;;11.70;54.20;;;;;;4907462;29;20036;-79
2022/04/30 00:03:01;;;;;;;3.40;2.10;;;11.70;54.40;;;;;;4919536;29;20024;-80
2022/04/30 00:05:32;;;;;;;2.67;2.00;;;11.70;54.50;;;;;;4891503;29;20436;-80
2022/04/30 00:07:59;;;;;;;2.42;1.80;;;11.60;54.60;;;;;;4907035;29;20036;-78
2022/04/30 00:10:25;;;;;;;3.53;1.80;;;11.60;55.20;;;;;;4907551;29;20589;-79
2022/04/30 00:12:53;;;;;;;3.42;2.00;;;11.60;54.70;;;;;;4888179;29;20325;-79
2022/04/30 00:15:20;;;;;;;3.15;2.00;;;11.50;54.80;;;;;;4902060;29;20044;-80
2022/04/30 00:17:46;;;;;;;3.22;1.90;;;11.50;54.70;;;;;;4898440;29;20492;-80
2022/04/30 00:20:12;;;;;;;3.60;1.83;;;11.50;54.70;;;;;;4885291;29;20024;-80
2022/04/30 00:22:38;;;;;;;3.97;1.80;;;11.40;54.80;;;;;;4904137;29;20420;-79
2022/04/30 00:25:04;;;;;;;3.97;2.30;;;11.40;54.90;;;;;;4907998;29;20090;-80
2022/04/30 00:27:31;;;;;;;3.63;2.10;;;11.30;54.90;;;;;;4885107;29;20126;-79
2022/04/30 00:29:58;;;;;;;3.72;2.03;;;11.30;55.00;;;;;;4885807;29;20064;-80
2022/04/30 00:32:24;;;;;;;3.45;1.95;;;11.20;54.90;;;;;;4908963;29;20036;-80
2022/04/30 00:34:50;;;;;;;3.40;2.30;;;11.30;55.00;;;;;;4887907;29;20044;-80
2022/04/30 00:37:16;;;;;;;3.13;1.93;;;11.20;55.10;;;;;;4914544;29;20042;-80
2022/04/30 00:39:41;;;;;;;3.20;1.90;;;11.20;55.30;;;;;;4906006;29;20028;-80
2022/04/30 00:42:11;;;;;;;2.77;2.00;;;11.10;55.20;;;;;;4909823;29;20500;-79
2022/04/30 00:44:37;;;;;;;3.50;2.00;;;11.10;55.50;;;;;;4883323;29;20400;-80
2022/04/30 00:47:03;;;;;;;3.20;1.70;;;11.00;55.40;;;;;;4906519;29;20051;-79
2022/04/30 00:49:28;;;;;;;2.90;1.90;;;11.00;55.50;;;;;;4915462;29;20032;-79
2022/04/30 00:51:58;;;;;;;2.90;1.90;;;10.90;56.10;;;;;;4912314;29;20286;-80
2022/04/30 00:54:26;;;;;;;3.22;2.20;;;10.90;55.70;;;;;;4904254;29;20067;-80
2022/04/30 00:56:55;;;;;;;2.95;1.90;;;10.90;55.60;;;;;;4915235;29;20054;-80
2022/04/30 00:59:23;;;;;;;3.70;1.88;;;10.80;55.60;;;;;;4906908;29;20032;-79
2022/04/30 01:01:49;;;;;;;3.37;2.20;;;10.80;55.80;;;;;;4897983;29;20507;-79
2022/04/30 01:04:16;;;;;;;3.97;1.98;;;10.70;55.80;;;;;;4907702;29;20044;-80
2022/04/30 01:07:02;;;;;;;3.65;1.90;;;10.70;55.90;;;;;;4888271;29;20255;-78
2022/04/30 01:09:31;;;;;;;2.80;1.85;;;10.60;56.80;;;;;;4902642;29;20517;-79
2022/04/30 01:12:06;;;;;;;2.92;1.90;;;10.60;55.90;;;;;;4893377;29;20039;-79
2022/04/30 01:14:32;;;;;;;3.80;1.90;;;10.60;56.40;;;;;;4889993;29;20104;-79
2022/04/30 01:16:59;;;;;;;3.17;1.83;;;10.50;56.10;;;;;;4909717;29;20141;-79
2022/04/30 01:19:29;;;;;;;2.53;1.63;;;10.50;56.20;;;;;;4895479;29;20655;-79
2022/04/30 01:21:59;;;;;;;3.35;1.77;;;10.40;56.10;;;;;;4882510;29;20503;-80
2022/04/30 01:24:27;;;;;;;3.28;1.95;;;10.40;56.50;;;;;;4904349;29;20236;-79
2022/04/30 01:26:55;;;;;;;2.87;1.77;;;10.40;56.40;;;;;;4896559;29;20274;-79
2022/04/30 01:29:24;;;;;;;2.65;1.70;;;10.30;56.60;;;;;;4907883;29;20075;-79
2022/04/30 01:37:24;;;;;;;3.30;1.70;;;10.20;56.30;;;;;;4901388;29;20489;-79
2022/04/30 01:39:55;;;;;;;7.23;1.83;;;10.20;56.70;;;;;;4914240;29;20246;-79
2022/04/30 01:42:22;;;;;;;3.28;1.60;;;10.10;56.60;;;;;;4901745;29;20249;-79
2022/04/30 01:44:49;;;;;;;2.25;1.60;;;10.10;56.60;;;;;;4910945;29;20028;-79
2022/04/30 01:47:18;;;;;;;2.80;1.70;;;10.10;56.70;;;;;;4896185;29;20563;-79
2022/04/30 01:49:44;;;;;;;2.78;1.70;;;10.00;57.10;;;;;;4896893;29;20222;-79
2022/04/30 01:52:13;;;;;;;2.47;1.30;;;10.00;56.90;;;;;;4896758;29;20083;-79
2022/04/30 01:54:38;;;;;;;2.33;1.65;;;10.00;57.00;;;;;;4892907;29;20063;-79
2022/04/30 01:57:06;;;;;;;3.17;1.50;;;9.90;57.10;;;;;;4909959;29;20052;-79
2022/04/30 01:59:32;;;;;;;3.00;1.60;;;9.90;57.20;;;;;;4906299;29;20028;-80
2022/04/30 02:01:59;;;;;;;2.17;1.58;;;9.90;57.30;;;;;;4887632;29;20147;-79
2022/04/30 02:04:25;;;;;;;3.08;1.60;;;9.80;57.20;;;;;;4897748;29;20032;-79
2022/04/30 02:06:51;;;;;;;2.65;1.50;;;9.80;57.30;;;;;;4889702;29;20421;-80
2022/04/30 02:09:18;;;;;;;2.20;1.40;;;9.80;57.20;;;;;;4898590;29;20389;-80
2022/04/30 02:11:44;;;;;;;2.53;1.52;;;9.80;57.50;;;;;;4903036;29;20270;-80
2022/04/30 02:14:14;;;;;;;2.80;1.70;;;9.70;57.40;;;;;;4906865;29;20040;-79
2022/04/30 02:16:44;;;;;;;2.30;1.45;;;9.70;57.70;;;;;;4877148;29;21502;-79
2022/04/30 02:19:11;;;;;;;2.75;1.33;;;9.70;57.50;;;;;;4919590;29;20507;-82
2022/04/30 02:21:40;;;;;;;2.27;1.40;;;9.70;57.50;;;;;;4882998;29;20235;-82
2022/04/30 02:24:07;;;;;;;2.90;1.30;;;9.60;57.50;;;;;;4915697;29;20032;-82
2022/04/30 02:26:33;;;;;;;1.92;1.30;;;9.60;57.40;;;;;;4898049;29;20123;-82
2022/04/30 02:28:59;;;;;;;1.90;1.40;;;9.60;57.40;;;;;;4893989;29;20071;-82
2022/04/30 02:31:27;;;;;;;2.27;1.50;;;9.60;57.60;;;;;;4896599;29;20071;-82
2022/04/30 02:33:56;;;;;;;2.00;1.33;;;9.50;57.70;;;;;;4921184;28;20043;-82
2022/04/30 02:36:26;;;;;;;1.48;1.30;;;9.50;57.90;;;;;;4905350;29;20071;-81
2022/04/30 02:38:56;;;;;;;2.85;1.38;;;9.50;57.90;;;;;;4893462;29;20263;-82
2022/04/30 02:41:22;;;;;;;3.90;1.80;;;9.40;58.00;;;;;;4896550;29;20046;-82
2022/04/30 02:43:52;;;;;;;4.03;1.52;;;9.40;57.70;;;;;;4894501;29;20750;-82
2022/04/30 02:46:20;;;;;;;2.47;1.40;;;9.30;57.80;;;;;;4905118;29;20100;-83
2022/04/30 02:48:48;;;;;;;2.53;1.50;;;9.40;58.00;;;;;;4886034;29;20074;-82
2022/04/30 02:51:17;;;;;;;2.97;1.67;;;9.30;58.40;;;;;;4898176;29;21140;-82
2022/04/30 02:53:46;;;;;;;2.07;1.30;;;9.30;58.10;;;;;;4893989;29;20175;-82
2022/04/30 02:56:11;;;;;;;2.58;1.35;;;9.20;58.10;;;;;;4895076;29;20040;-82
2022/04/30 03:01:25;;;;;;;2.17;1.40;;;9.20;58.40;;;;;;4901924;29;20402;-82
2022/04/30 03:03:50;;;;;;;2.07;1.53;;;9.10;58.30;;;;;;4872368;29;20595;-81
2022/04/30 03:06:17;;;;;;;3.30;1.57;;;9.20;58.50;;;;;;4909338;29;20039;-82
2022/04/30 03:08:47;;;;;;;3.38;1.55;;;9.10;58.60;;;;;;4882531;29;20040;-82
2022/04/30 03:11:13;;;;;;;1.73;1.40;;;9.10;59.00;;;;;;4904728;29;20028;-82
2022/04/30 03:13:39;;;;;;;2.03;1.33;;;9.00;58.60;;;;;;4889485;29;20040;-82
2022/04/30 03:21:44;;;;;;;3.38;2.00;;;9.00;58.90;;;;;;4884622;29;20127;-82
2022/04/30 03:24:10;;;;;;;3.20;1.80;;;9.00;58.80;;;;;;4909101;29;20135;-82
2022/04/30 03:26:36;;;;;;;3.30;1.70;;;8.90;58.80;;;;;;4893473;29;20059;-82
2022/04/30 03:29:03;;;;;;;2.75;1.60;;;8.90;59.00;;;;;;4897197;29;20478;-82
2022/04/30 03:31:30;;;;;;;2.77;1.63;;;8.90;59.00;;;;;;4893313;29;20087;-82
2022/04/30 03:33:56;;;;;;;2.55;1.55;;;8.80;59.00;;;;;;4903173;29;20357;-82
2022/04/30 03:36:24;;;;;;;3.05;1.52;;;8.80;59.10;;;;;;4885688;29;20044;-82
2022/04/30 03:38:50;;;;;;;2.88;1.70;;;8.80;59.10;;;;;;4898064;29;20042;-82
2022/04/30 03:41:15;;;;;;;2.87;1.80;;;8.80;59.20;;;;;;4896200;29;20043;-82
2022/04/30 03:43:41;;;;;;;2.35;1.50;;;8.80;59.20;;;;;;4882875;29;20045;-82
2022/04/30 03:46:07;;;;;;;2.43;1.50;;;8.70;59.10;;;;;;4918043;29;20047;-82
2022/04/30 03:48:33;;;;;;;2.47;1.70;;;8.70;59.10;;;;;;4901259;29;20105;-82
2022/04/30 03:50:59;;;;;;;2.63;1.55;;;8.70;59.20;;;;;;4875682;29;20054;-82
2022/04/30 03:53:25;;;;;;;1.95;1.30;;;8.70;59.20;;;;;;4901682;29;20441;-82
2022/04/30 03:55:52;;;;;;;3.40;1.70;;;8.70;59.20;;;;;;4891102;29;20195;-82
2022/04/30 03:58:17;;;;;;;2.55;1.60;;;8.60;59.20;;;;;;4916420;29;20043;-82
2022/04/30 04:00:51;;;;;;;2.08;1.20;;;8.60;59.90;;;;;;4897763;29;20286;-82
2022/04/30 04:03:16;;;;;;;2.90;1.50;;;8.60;59.80;;;;;;4910920;29;20059;-82
2022/04/30 04:05:42;;;;;;;4.80;1.90;;;8.60;59.20;;;;;;4883233;29;20811;-82
2022/04/30 04:08:20;;;;;;;2.53;1.37;;;8.50;59.30;;;;;;4912850;29;20105;-82
2022/04/30 04:10:46;;;;;;;2.20;1.38;;;8.50;60.00;;;;;;4903113;29;20059;-80
2022/04/30 04:18:40;;;;;;;2.63;1.30;;;8.50;59.40;;;;;;4895627;29;20036;-80
2022/04/30 04:21:07;;;;;;;2.85;1.50;;;8.40;59.50;;;;;;4908245;29;20502;-80
2022/04/30 04:25:58;;;;;;;2.60;1.60;;;8.40;59.50;;;;;;4878344;29;20564;-79
2022/04/30 04:26:19;;;;;;;2.22;1.40;;;8.40;59.60;;;;;;4903162;29;20032;-80
2022/04/30 04:28:45;;;;;;;2.75;1.40;;;8.30;59.50;;;;;;4894019;29;20227;-82
2022/04/30 04:31:10;;;;;;;3.28;1.50;;;8.30;59.60;;;;;;4888664;29;20127;-82
2022/04/30 04:33:36;;;;;;;3.53;1.57;;;8.30;59.60;;;;;;4898231;29;20036;-80
2022/04/30 04:36:02;;;;;;;1.97;1.27;;;8.30;59.70;;;;;;4902036;29;20044;-80
2022/04/30 04:38:32;;;;;;;2.57;1.60;;;8.30;59.70;;;;;;4893631;29;20296;-80
2022/04/30 04:40:58;;;;;;;3.13;1.50;;;8.30;60.00;;;;;;4901075;29;20576;-80
2022/04/30 04:43:23;;;;;;;3.03;1.57;;;8.20;59.80;;;;;;4890985;29;20107;-80
2022/04/30 04:45:49;;;;;;;2.55;1.35;;;8.30;59.90;;;;;;4892593;29;20294;-80
2022/04/30 04:48:15;;;;;;;2.33;1.50;;;8.20;60.00;;;;;;4911587;29;20055;-80
2022/04/30 04:50:41;;;;;;;3.33;1.60;;;8.20;60.00;;;;;;4901794;29;20036;-80
2022/04/30 04:53:07;;;;;;;2.65;1.45;;;8.20;60.10;;;;;;4911266;29;20040;-80
2022/04/30 04:55:32;;;;;;;2.57;1.50;;;8.20;60.20;;;;;;4885767;29;20066;-82
2022/04/30 04:57:58;;;;;;;2.80;1.60;;;8.20;60.20;;;;;;4899473;29;20028;-82
2022/04/30 05:00:24;;;;;;;2.30;1.50;;;8.20;60.40;;;;;;4891676;29;20535;-82
2022/04/30 05:02:53;;;;;;;2.03;1.35;;;8.20;60.50;;;;;;4885662;29;20252;-82
2022/04/30 05:05:18;;;;;;;2.50;1.60;;;8.20;60.80;;;;;;4884048;29;20132;-82
2022/04/30 05:07:44;;;;;;;2.60;1.70;;;8.20;60.60;;;;;;4900562;29;20558;-82
2022/04/30 05:10:10;;;;;;;2.43;1.50;;;8.20;60.70;;;;;;4884470;29;20516;-83
2022/04/30 05:12:35;;;;;;;2.58;1.45;;;8.20;60.80;;;;;;4902616;29;20258;-82
2022/04/30 05:15:01;;;;;;;3.50;1.53;;;8.20;60.70;;;;;;4890289;29;20084;-82
2022/04/30 05:17:27;;;;;;;2.63;1.50;;;8.30;60.90;;;;;;4884802;29;20192;-82
2022/04/30 05:19:52;;;;;;;2.77;1.47;;;8.30;60.90;;;;;;4902407;29;20036;-82
2022/04/30 05:22:18;;;;;;;2.83;1.63;;;8.30;60.90;;;;;;4907465;29;20126;-82
2022/04/30 05:24:44;;;;;;;2.17;1.63;;;8.30;61.00;;;;;;4901899;29;20043;-82
2022/04/30 05:27:09;;;;;;;2.90;1.77;;;8.30;61.10;;;;;;4887768;29;20044;-82
2022/04/30 05:29:35;;;;;;;3.42;2.38;;;8.30;61.10;;;;;;4885297;29;20043;-81
2022/04/30 05:32:01;;;;;;;3.53;2.45;;;8.40;61.20;;;;;;4893827;29;20040;-82
2022/04/30 05:34:29;;;;;;;2.90;2.07;;;8.40;61.20;;;;;;4892515;29;20084;-82
2022/04/30 05:36:55;;;;;;;3.90;1.92;;;8.40;61.30;;;;;;4878998;29;20662;-82
2022/04/30 05:39:21;;;;;;;3.60;1.60;;;8.40;61.40;;;;;;4902580;29;20068;-82
2022/04/30 05:41:46;;;;;;;4.07;2.00;;;8.40;61.40;;;;;;4888458;29;20238;-82
2022/04/30 05:44:12;;;;;;;3.63;1.83;;;8.40;61.50;;;;;;4904152;29;20063;-82
2022/04/30 05:46:38;;;;;;;2.42;1.58;;;8.50;61.70;;;;;;4894737;29;20248;-82
2022/04/30 05:49:04;;;;;;;2.83;1.65;;;8.50;61.70;;;;;;4894692;29;20047;-82
2022/04/30 05:51:29;;;;;;;2.63;1.57;;;8.50;61.80;;;;;;4881609;29;20055;-82
2022/04/30 05:53:57;;;;;;;2.92;1.85;;;8.60;62.20;;;;;;4898763;29;20032;-82
2022/04/30 05:56:23;;;;;;;2.83;1.40;;;8.70;62.30;;;;;;4882448;29;20036;-82
2022/04/30 05:58:48;;;;;;;3.33;1.60;;;8.80;62.40;;;;;;4892136;29;20322;-82
2022/04/30 06:01:14;;;;;;;2.70;1.42;;;8.90;63.10;;;;;;4902871;29;20036;-80
2022/04/30 06:03:40;;;;;;;2.73;1.80;;;8.90;62.40;;;;;;4892548;29;20754;-80
2022/04/30 06:06:06;;;;;;;3.10;1.90;;;9.00;62.50;;;;;;4902180;29;20038;-80
2022/04/30 06:08:32;;;;;;;3.50;1.80;;;9.10;62.50;;;;;;4887046;29;20059;-82
2022/04/30 06:10:58;;;;;;;2.73;1.50;;;9.20;62.60;;;;;;4897118;29;20055;-80
2022/04/30 06:13:24;;;;;;;2.70;1.70;;;9.20;62.80;;;;;;4884020;29;20040;-80
2022/04/30 06:15:50;;;;;;;2.75;1.90;;;9.30;63.00;;;;;;4896569;29;20380;-80
2022/04/30 06:18:16;;;;;;;3.23;1.83;;;9.40;63.10;;;;;;4909890;29;20135;-80
2022/04/30 06:20:42;;;;;;;3.17;2.10;;;9.50;63.20;;;;;;4901390;29;20211;-80
2022/04/30 06:23:08;;;;;;;3.47;2.10;;;9.70;63.40;;;;;;4894631;29;20064;-80
2022/04/30 06:25:35;;;;;;;2.73;1.83;;;9.80;63.40;;;;;;4895689;29;20406;-80
2022/04/30 06:28:01;;;;;;;2.63;1.67;;;9.90;63.30;;;;;;4884659;29;20037;-79
2022/04/30 06:30:27;;;;;;;2.88;1.80;;;10.00;63.10;;;;;;4896451;29;20334;-81
2022/04/30 06:32:53;;;;;;;3.17;1.75;;;10.10;63.10;;;;;;4878808;29;23325;-79
2022/04/30 06:35:18;;;;;;;3.47;1.90;;;10.20;63.00;;;;;;4894389;29;20036;-80
2022/04/30 06:37:44;;;;;;;3.67;2.25;;;10.40;63.00;;;;;;4897149;29;20667;-79
2022/04/30 06:40:10;;;;;;;3.60;2.30;;;10.50;63.60;;;;;;4905311;29;20039;-78
2022/04/30 06:42:44;;;;;;;4.80;2.20;;;10.60;63.50;;;;;;4891438;29;20068;-80
2022/04/30 06:45:11;;;;;;;3.55;1.88;;;10.70;63.60;;;;;;4876434;29;20044;-79
2022/04/30 06:47:37;;;;;;;4.15;2.42;;;10.80;63.30;;;;;;4909282;29;20302;-80
2022/04/30 06:50:04;;;;;;;3.85;2.25;;;10.90;63.10;;;;;;4880673;29;20124;-79
2022/04/30 06:52:30;;;;;;;5.18;2.50;;;11.00;63.70;;;;;;4880614;29;20116;-80
2022/04/30 06:57:43;;;;;;;3.08;1.77;;;11.40;64.00;;;;;;4895433;29;20032;-79
2022/04/30 07:02:57;;;;;;;4.13;2.10;;;11.70;64.30;;;;;;4890939;29;20278;-80
2022/04/30 07:05:22;;;;;;;3.25;1.92;;;11.90;63.70;;;;;;4886413;29;20187;-80
2022/04/30 07:07:48;;;;;;;3.93;2.20;;;12.10;63.70;;;;;;4883374;29;20145;-79
2022/04/30 07:10:14;;;;;;;2.80;1.83;;;12.30;63.50;;;;;;4876139;29;20050;-79
2022/04/30 07:12:40;;;;;;;3.23;2.00;;;12.40;62.90;;;;;;4885065;29;20067;-80
2022/04/30 07:15:06;;;;;;;4.38;2.00;;;12.50;63.10;;;;;;4882146;29;26201;-80
2022/04/30 07:17:32;;;;;;;2.83;1.90;;;12.60;62.60;;;;;;4899821;29;20094;-80
2022/04/30 07:19:58;;;;;;;2.93;1.90;;;12.70;62.40;;;;;;4895135;29;20424;-79
2022/04/30 07:22:23;;;;;;;3.47;2.20;;;12.80;62.80;;;;;;4890588;29;20284;-79
2022/04/30 07:24:51;;;;;;;3.33;1.97;;;13.00;63.00;;;;;;4895113;29;20119;-79
2022/04/30 07:27:16;;;;;;;3.92;2.20;;;13.20;63.50;;;;;;4875628;29;20239;-80
2022/04/30 07:29:43;;;;;;;4.72;2.20;;;13.40;63.80;;;;;;4891604;29;20032;-79
2022/04/30 07:32:09;;;;;;;3.20;2.00;;;13.70;63.70;;;;;;4872406;29;20833;-80
2022/04/30 07:34:39;;;;;;;2.93;1.90;;;14.00;63.60;;;;;;4880513;29;20282;-81
2022/04/30 07:37:10;;;;;;;4.07;2.10;;;14.30;63.60;;;;;;4882833;29;20481;-79
2022/04/30 07:39:37;;;;;;;4.10;2.10;;;14.50;63.10;;;;;;4894116;29;20226;-80
2022/04/30 07:42:03;;;;;;;3.88;2.30;;;14.80;62.50;;;;;;4888744;29;20040;-80
2022/04/30 07:44:30;;;;;;;4.40;2.50;;;15.00;62.70;;;;;;4893811;29;20027;-80
2022/04/30 07:46:56;;;;;;;3.50;2.10;;;15.10;61.00;;;;;;4893700;29;20059;-80
2022/04/30 07:49:22;;;;;;;3.20;2.00;;;15.20;60.30;;;;;;4907806;29;20075;-80
2022/04/30 07:51:55;;;;;;;3.95;2.00;;;15.20;59.50;;;;;;4883768;29;20126;-79
2022/04/30 07:54:22;;;;;;;3.70;2.33;;;15.10;58.90;;;;;;4897972;29;20036;-79
2022/04/30 07:56:54;;;;;;;3.83;2.30;;;15.00;58.50;;;;;;4891376;29;20036;-79
2022/04/30 07:59:21;;;;;;;3.65;2.22;;;14.90;58.40;;;;;;4895029;29;20032;-79
2022/04/30 08:01:47;;;;;;;4.68;2.55;;;14.80;58.30;;;;;;4890447;29;25914;-79
2022/04/30 08:04:13;;;;;;;4.78;2.50;;;14.70;58.10;;;;;;4906747;29;20028;-79
2022/04/30 08:06:39;;;;;;;4.63;2.45;;;14.60;58.00;;;;;;4888519;29;21242;-79
2022/04/30 08:09:05;;;;;;;4.73;2.40;;;14.50;58.30;;;;;;4894414;29;20040;-80
2022/04/30 08:11:30;;;;;;;3.95;2.30;;;14.50;58.70;;;;;;4877430;29;20346;-79
2022/04/30 08:13:56;;;;;;;3.67;2.50;;;14.40;58.70;;;;;;4882399;29;20119;-80
2022/04/30 08:16:22;;;;;;;5.10;2.25;;;14.40;59.30;;;;;;4913764;29;20055;-79
2022/04/30 08:18:48;;;;;;;3.53;2.03;;;14.40;59.60;;;;;;4884894;29;20592;-79
2022/04/30 08:21:14;;;;;;;3.00;2.10;;;14.50;59.50;;;;;;4899779;29;20039;-79
2022/04/30 08:23:39;;;;;;;3.20;1.98;;;14.60;59.00;;;;;;4881221;29;20249;-79
2022/04/30 08:26:05;;;;;;;3.67;2.07;;;14.60;58.70;;;;;;4915967;29;20059;-80
2022/04/30 08:28:31;;;;;;;3.00;2.17;;;14.60;58.60;;;;;;4891952;29;20119;-80
2022/04/30 08:30:57;;;;;;;2.93;2.00;;;14.60;58.60;;;;;;4905837;29;20119;-80
2022/04/30 08:33:24;;;;;;;3.28;2.20;;;14.70;58.70;;;;;;4881023;29;20028;-79
2022/04/30 08:35:49;;;;;;;3.75;2.05;;;14.70;58.70;;;;;;4902579;29;20160;-79
2022/04/30 08:38:15;;;;;;;3.17;2.10;;;14.70;58.60;;;;;;4890648;29;20115;-79
2022/04/30 08:40:43;;;;;;;2.97;2.00;;;14.70;58.40;;;;;;4894844;29;20483;-79
2022/04/30 08:43:11;;;;;;;4.28;2.00;;;14.80;58.40;;;;;;4893630;29;20104;-79
2022/04/30 08:45:38;;;;;;;2.92;2.20;;;14.80;57.90;;;;;;4906776;29;20100;-79
2022/04/30 08:48:07;;;;;;;4.07;2.13;;;14.80;57.70;;;;;;4912376;29;20072;-80
2022/04/30 08:50:33;;;;;;;3.17;2.10;;;14.80;57.80;;;;;;4876848;29;20067;-78
2022/04/30 08:52:59;;;;;;;3.80;2.15;;;14.90;59.10;;;;;;4893499;29;20397;-78
2022/04/30 08:55:24;;;;;;;2.77;2.07;;;15.20;61.30;;;;;;4894675;29;20093;-78
2022/04/30 08:57:50;;;;;;;3.10;2.13;;;15.60;62.00;;;;;;4880072;29;20056;-79
2022/04/30 09:00:16;;;;;;;3.28;2.05;;;16.00;61.20;;;;;;4896719;29;20043;-79
2022/04/30 09:02:56;;;;;;;5.50;2.00;;;16.50;61.80;;;;;;4901385;29;20036;-80
2022/04/30 09:05:28;;;;;;;3.45;2.33;;;17.00;60.20;;;;;;4896839;29;20183;-78
2022/04/30 09:07:55;;;;;;;4.13;2.40;;;17.50;59.00;;;;;;4890400;29;20052;-79
2022/04/30 09:10:28;;;;;;;5.13;2.22;;;17.70;57.70;;;;;;4892416;29;20265;-80
2022/04/30 09:13:02;;;;;;;3.78;2.33;;;17.80;56.10;;;;;;4879351;29;20047;-80
2022/04/30 09:15:30;;;;;;;3.47;2.30;;;17.80;55.70;;;;;;4901415;29;20314;-79
2022/04/30 09:18:00;;;;;;;3.95;2.30;;;17.80;56.80;;;;;;4903745;29;20039;-79
2022/04/30 09:20:26;;;;;;;2.97;2.20;;;18.00;56.50;;;;;;4873370;29;20028;-79
2022/04/30 09:22:52;;;;;;;3.17;2.25;;;18.20;56.50;;;;;;4895168;29;20041;-79
2022/04/30 09:25:18;;;;;;;3.60;2.03;;;18.30;56.10;;;;;;4885893;29;20047;-79
2022/04/30 09:27:51;;;;;;;4.00;2.40;;;18.40;55.60;;;;;;4889161;29;20828;-80
2022/04/30 09:30:32;;;;;;;4.40;2.20;;;18.50;55.00;;;;;;4892068;29;20119;-79
2022/04/30 09:33:07;;;;;;;3.70;2.00;;;18.50;54.20;;;;;;4902810;29;20045;-80
2022/04/30 09:38:19;;;;;;;3.60;2.05;;;18.50;53.20;;;;;;4896151;29;20040;-79
2022/04/30 09:40:58;;;;;;;4.03;1.90;;;18.30;52.90;;;;;;4882950;29;20073;-80
2022/04/30 09:43:34;;;;;;;4.28;2.00;;;18.10;52.30;;;;;;4885997;29;20059;-80
2022/04/30 09:46:03;;;;;;;2.92;1.80;;;18.00;52.90;;;;;;4899374;29;20036;-81
2022/04/30 09:54:01;;;;;;;3.38;1.80;;;17.80;53.90;;;;;;4874967;29;20203;-81
2022/04/30 09:56:37;;;;;;;2.78;1.70;;;17.90;53.90;;;;;;4873262;29;20052;-80
2022/04/30 09:59:14;;;;;;;2.65;1.70;;;17.90;53.50;;;;;;4881749;29;20976;-81
2022/04/30 10:01:42;;;;;;;3.03;1.67;;;17.90;53.20;;;;;;4900787;29;20016;-80
2022/04/30 10:04:12;;;;;;;3.80;1.80;;;18.00;53.40;;;;;;4932275;28;20050;-80
2022/04/30 10:06:44;;;;;;;2.47;1.83;;;18.10;52.90;;;;;;4883656;29;20143;-80
2022/04/30 10:09:12;;;;;;;2.78;1.60;;;18.10;53.00;;;;;;4905884;29;20485;-80
2022/04/30 10:11:56;;;;;;;2.10;1.50;;;18.10;52.90;;;;;;4879766;29;20443;-80
2022/04/30 10:14:31;;;;;;;2.25;1.67;;;18.10;52.10;;;;;;4907936;29;20397;-80
2022/04/30 10:17:13;;;;;;;3.53;1.70;;;18.20;51.70;;;;;;4888794;29;20064;-79
2022/04/30 10:19:39;;;;;;;2.10;1.60;;;18.10;51.80;;;;;;4896647;29;20082;-79
2022/04/30 10:22:11;;;;;;;3.53;2.00;;;18.10;52.00;;;;;;4886121;29;20063;-80
2022/04/30 10:24:52;;;;;;;3.00;1.98;;;18.10;51.70;;;;;;4904058;29;20557;-80
2022/04/30 10:27:18;;;;;;;3.33;1.88;;;18.10;51.70;;;;;;4888569;29;20036;-80
2022/04/30 10:29:51;;;;;;;3.50;1.90;;;18.10;52.10;;;;;;4892058;29;20052;-80
2022/04/30 10:32:35;;;;;;;3.22;1.77;;;18.10;51.30;;;;;;4877524;29;20036;-81
2022/04/30 10:35:03;;;;;;;2.92;1.70;;;18.10;51.30;;;;;;4920079;29;20074;-80
2022/04/30 10:37:35;;;;;;;2.65;1.77;;;18.00;51.70;;;;;;4903213;29;20087;-80
2022/04/30 10:40:04;;;;;;;2.75;2.08;;;18.00;51.40;;;;;;4886056;29;20040;-80
2022/04/30 10:42:32;;;;;;;2.53;1.80;;;18.00;51.60;;;;;;4883630;29;20128;-80
2022/04/30 10:44:58;;;;;;;4.00;1.90;;;18.00;51.50;;;;;;4890122;29;20259;-82
2022/04/30 10:47:24;;;;;;;2.75;1.92;;;18.00;51.60;;;;;;4884611;29;20512;-82
2022/04/30 10:49:50;;;;;;;3.05;1.65;;;18.00;51.70;;;;;;4895325;29;20322;-81
2022/04/30 10:52:21;;;;;;;2.23;1.70;;;18.10;52.20;;;;;;4897738;29;21244;-80
2022/04/30 10:54:49;;;;;;;3.40;1.83;;;18.20;52.70;;;;;;4876166;29;20275;-80
2022/04/30 10:57:15;;;;;;;3.15;1.63;;;18.50;54.10;;;;;;4894418;29;20037;-79
2022/04/30 10:59:40;;;;;;;2.55;1.90;;;18.90;54.70;;;;;;4869796;29;20048;-80
2022/04/30 11:02:07;;;;;;;2.27;1.73;;;19.30;54.50;;;;;;4910930;29;20032;-80
2022/04/30 11:04:34;;;;;;;3.15;2.05;;;19.70;54.10;;;;;;4884269;29;20047;-80
2022/04/30 11:07:00;;;;;;;3.97;2.10;;;20.10;52.90;;;;;;4890601;29;20643;-79
2022/04/30 11:09:26;;;;;;;2.80;1.90;;;20.30;51.80;;;;;;4881735;29;20044;-81
2022/04/30 11:11:52;;;;;;;2.67;1.83;;;20.50;51.10;;;;;;4892758;29;20109;-80
2022/04/30 11:14:19;;;;;;;3.13;1.97;;;20.60;50.90;;;;;;4890132;29;20127;-81
2022/04/30 11:16:46;;;;;;;2.83;2.00;;;20.70;50.70;;;;;;4890929;29;20708;-80
2022/04/30 11:19:14;;;;;;;2.50;1.90;;;20.90;50.00;;;;;;4887336;29;20040;-80
2022/04/30 11:21:42;;;;;;;3.05;1.92;;;20.90;49.30;;;;;;4890140;29;20059;-80
2022/04/30 11:24:09;;;;;;;3.77;2.00;;;20.90;48.80;;;;;;4905024;29;20067;-80
2022/04/30 11:26:40;;;;;;;2.75;2.00;;;20.80;48.10;;;;;;4875580;29;20067;-80
2022/04/30 11:29:10;;;;;;;2.80;2.00;;;20.70;47.20;;;;;;4894660;29;20471;-80
2022/04/30 11:31:37;;;;;;;2.28;1.80;;;20.60;47.70;;;;;;4885134;29;20051;-79
2022/04/30 11:34:15;;;;;;;2.47;1.50;;;20.70;50.10;;;;;;4881103;29;20263;-79
2022/04/30 11:36:48;;;;;;;2.73;1.67;;;21.00;51.10;;;;;;4896626;29;20079;-78
2022/04/30 11:39:15;;;;;;;3.22;2.05;;;21.50;50.50;;;;;;4901711;29;20045;-80
2022/04/30 11:41:43;;;;;;;3.20;1.95;;;21.80;51.10;;;;;;4882632;29;20131;-79
2022/04/30 11:44:10;;;;;;;2.83;1.80;;;22.20;50.20;;;;;;4918149;28;20710;-83
2022/04/30 11:46:37;;;;;;;3.85;1.80;;;22.40;48.80;;;;;;4900289;29;20127;-81
2022/04/30 11:49:17;;;;;;;4.93;1.93;;;22.60;47.90;;;;;;4882447;29;20251;-81
2022/04/30 11:51:44;;;;;;;3.10;1.90;;;22.60;45.60;;;;;;4908867;29;20103;-80
2022/04/30 11:54:12;;;;;;;2.92;1.85;;;22.50;46.20;;;;;;4888321;29;20058;-81
2022/04/30 11:56:39;;;;;;;3.10;2.10;;;22.50;45.80;;;;;;4873413;29;20606;-80
2022/04/30 11:59:05;;;;;;;2.50;2.00;;;22.40;45.80;;;;;;4892894;29;20572;-81
2022/04/30 12:01:33;;;;;;;2.90;2.00;;;22.40;45.70;;;;;;4906785;29;20036;-81
2022/04/30 12:04:09;;;;;;;2.25;1.75;;;22.40;45.90;;;;;;4875434;29;20624;-80
2022/04/30 12:06:36;;;;;;;2.45;2.13;;;22.40;45.20;;;;;;4901831;29;20441;-81
2022/04/30 12:09:27;;;;;;;2.58;1.90;;;22.40;45.40;;;;;;4885908;29;20184;-80
2022/04/30 12:11:53;;;;;;;3.05;2.00;;;22.40;44.20;;;;;;4879222;29;20365;-82
2022/04/30 12:14:19;;;;;;;2.40;2.00;;;22.40;45.50;;;;;;4883081;29;20092;-80
2022/04/30 12:16:47;;;;;;;2.60;1.80;;;22.40;45.30;;;;;;4899493;29;20315;-81
2022/04/30 12:25:21;;;;;;;2.25;1.92;;;22.30;44.20;;;;;;4884576;29;20338;-81
2022/04/30 12:27:56;;;;;;;2.80;1.93;;;22.30;42.70;;;;;;4887343;29;20042;-80
2022/04/30 12:30:23;;;;;;;2.70;2.08;;;22.20;43.50;;;;;;4888320;29;20155;-81
2022/04/30 12:32:54;;;;;;;3.33;1.90;;;22.20;44.30;;;;;;4886120;29;20035;-80
2022/04/30 12:35:27;;;;;;;3.33;2.22;;;22.10;44.10;;;;;;4908320;29;20037;-81
2022/04/30 12:38:13;;;;;;;3.47;2.15;;;22.10;44.00;;;;;;4872853;29;20172;-79
2022/04/30 12:40:41;;;;;;;3.00;1.90;;;22.20;42.90;;;;;;4882241;29;20024;-82
2022/04/30 12:43:07;;;;;;;2.85;2.10;;;22.10;43.60;;;;;;4898213;29;20671;-80
2022/04/30 12:45:33;;;;;;;2.60;1.92;;;22.10;43.60;;;;;;4891059;29;20039;-80
2022/04/30 12:48:00;;;;;;;2.20;2.00;;;22.00;43.30;;;;;;4911512;29;20292;-81
2022/04/30 13:16:09;;;;;;;2.95;2.10;;;21.00;44.50;;;;;;5087258;27;20553;-79
2022/04/30 13:18:35;;;;;;;2.92;2.10;;;21.00;41.50;;;;;;5073243;28;20027;-81
2022/04/30 13:21:03;;;;;;;2.20;1.90;;;20.90;41.40;;;;;;5054737;28;20032;-81
2022/04/30 13:23:29;;;;;;;2.42;1.80;;;20.70;41.30;;;;;;5054633;28;20395;-83
2022/04/30 13:25:55;;;;;;;3.15;2.10;;;20.40;41.40;;;;;;5074658;28;20020;-82
2022/04/30 13:28:20;;;;;;;4.20;1.90;;;20.10;41.60;;;;;;5058655;28;20048;-81
2022/04/30 13:30:46;;;;;;;2.65;1.83;;;19.80;42.10;;;;;;5042622;28;20028;-82
2022/04/30 13:33:11;;;;;;;2.57;1.83;;;19.50;42.30;;;;;;5034396;28;20772;-82
2022/04/30 13:35:37;;;;;;;3.13;1.98;;;19.30;42.70;;;;;;5060899;28;20495;-83
2022/04/30 13:38:03;;;;;;;3.73;2.00;;;19.10;42.90;;;;;;5057425;28;20250;-82
2022/04/30 13:40:28;;;;;;;2.88;1.80;;;19.00;43.30;;;;;;5056347;28;20051;-81
2022/04/30 13:42:54;;;;;;;3.67;1.77;;;18.80;43.40;;;;;;5041984;28;20024;-81
2022/04/30 13:45:21;;;;;;;3.93;1.80;;;18.60;43.70;;;;;;5055449;28;20043;-84
2022/04/30 13:47:50;;;;;;;2.80;2.00;;;18.50;43.80;;;;;;5057449;28;20335;-81
2022/04/30 13:50:17;;;;;;;3.10;1.73;;;18.40;43.90;;;;;;5032620;28;20040;-82
2022/04/30 13:52:42;;;;;;;3.58;1.92;;;18.30;44.20;;;;;;5054981;28;20123;-81
2022/04/30 13:55:09;;;;;;;2.23;1.67;;;18.20;44.40;;;;;;5062379;28;20024;-82
2022/04/30 13:57:36;;;;;;;3.20;1.77;;;18.10;44.50;;;;;;5067068;28;20287;-82